sensor_id;sensor_type;location;lat;lon;timestamp;temperature;humidity
16404;DHT22;8311;50.158;8.642;2022-07-30T00:02:31;26.50;42.90
16404;DHT22;8311;50.158;8.642;2022-07-30T00:05:25;26.50;42.90
16404;DHT22;8311;50.158;8.642;2022-07-30T00:08:17;26.50;42.90
16404;DHT22;8311;50.158;8.642;2022-07-30T00:11:11;26.50;42.80
16404;DHT22;8311;50.158;8.642;2022-07-30T00:14:05;26.50;42.80
16404;DHT22;8311;50.158;8.642;2022-07-30T00:16:57;26.50;42.80
16404;DHT22;8311;50.158;8.642;2022-07-30T00:19:52;26.40;42.80
16404;DHT22;8311;50.158;8.642;2022-07-30T00:22:46;26.50;42.90
16404;DHT22;8311;50.158;8.642;2022-07-30T00:25:39;26.50;42.90
16404;DHT22;8311;50.158;8.642;2022-07-30T00:28:32;26.50;42.90
16404;DHT22;8311;50.158;8.642;2022-07-30T00:31:27;26.50;42.90
16404;DHT22;8311;50.158;8.642;2022-07-30T00:34:20;26.50;42.90
16404;DHT22;8311;50.158;8.642;2022-07-30T00:37:14;26.50;43.00
16404;DHT22;8311;50.158;8.642;2022-07-30T00:40:08;26.50;43.00
16404;DHT22;8311;50.158;8.642;2022-07-30T00:43:01;26.50;43.00
16404;DHT22;8311;50.158;8.642;2022-07-30T00:45:55;26.40;42.90
16404;DHT22;8311;50.158;8.642;2022-07-30T00:48:50;26.50;42.90
16404;DHT22;8311;50.158;8.642;2022-07-30T00:51:44;26.50;43.00
16404;DHT22;8311;50.158;8.642;2022-07-30T00:54:37;26.50;42.90
16404;DHT22;8311;50.158;8.642;2022-07-30T00:57:30;26.50;42.90
16404;DHT22;8311;50.158;8.642;2022-07-30T01:00:26;26.50;42.90
16404;DHT22;8311;50.158;8.642;2022-07-30T01:03:19;26.50;42.80
16404;DHT22;8311;50.158;8.642;2022-07-30T01:06:14;26.50;42.90
16404;DHT22;8311;50.158;8.642;2022-07-30T01:09:08;26.50;42.80
16404;DHT22;8311;50.158;8.642;2022-07-30T01:12:02;26.50;42.90
16404;DHT22;8311;50.158;8.642;2022-07-30T01:14:59;26.40;42.80
16404;DHT22;8311;50.158;8.642;2022-07-30T01:17:56;26.50;42.90
16404;DHT22;8311;50.158;8.642;2022-07-30T01:21:00;26.50;42.90
16404;DHT22;8311;50.158;8.642;2022-07-30T01:24:01;26.50;42.80
16404;DHT22;8311;50.158;8.642;2022-07-30T01:27:00;26.50;42.80
16404;DHT22;8311;50.158;8.642;2022-07-30T01:29:56;26.50;42.80
16404;DHT22;8311;50.158;8.642;2022-07-30T01:32:52;26.40;42.70
16404;DHT22;8311;50.158;8.642;2022-07-30T01:35:46;26.40;42.80
16404;DHT22;8311;50.158;8.642;2022-07-30T01:38:43;26.50;42.80
16404;DHT22;8311;50.158;8.642;2022-07-30T01:41:37;26.40;42.80
16404;DHT22;8311;50.158;8.642;2022-07-30T01:44:33;26.50;42.90
16404;DHT22;8311;50.158;8.642;2022-07-30T01:47:27;26.50;42.80
16404;DHT22;8311;50.158;8.642;2022-07-30T01:50:21;26.40;42.80
16404;DHT22;8311;50.158;8.642;2022-07-30T01:53:16;26.50;42.80
16404;DHT22;8311;50.158;8.642;2022-07-30T01:56:12;26.50;42.90
16404;DHT22;8311;50.158;8.642;2022-07-30T01:59:08;26.50;42.90
16404;DHT22;8311;50.158;8.642;2022-07-30T02:02:04;26.40;42.90
16404;DHT22;8311;50.158;8.642;2022-07-30T02:04:57;26.50;42.80
16404;DHT22;8311;50.158;8.642;2022-07-30T02:07:54;26.50;42.80
16404;DHT22;8311;50.158;8.642;2022-07-30T02:10:53;26.50;42.90
16404;DHT22;8311;50.158;8.642;2022-07-30T02:13:52;26.50;42.80
16404;DHT22;8311;50.158;8.642;2022-07-30T02:16:49;26.50;42.80
16404;DHT22;8311;50.158;8.642;2022-07-30T02:19:50;26.50;42.90
16404;DHT22;8311;50.158;8.642;2022-07-30T02:22:46;26.50;42.80
16404;DHT22;8311;50.158;8.642;2022-07-30T02:25:43;26.50;42.90
16404;DHT22;8311;50.158;8.642;2022-07-30T02:28:38;26.40;42.80
16404;DHT22;8311;50.158;8.642;2022-07-30T02:31:33;26.50;42.90
16404;DHT22;8311;50.158;8.642;2022-07-30T02:34:27;26.50;42.90
16404;DHT22;8311;50.158;8.642;2022-07-30T02:37:23;26.40;42.80
16404;DHT22;8311;50.158;8.642;2022-07-30T02:40:39;26.50;42.80
16404;DHT22;8311;50.158;8.642;2022-07-30T02:43:33;26.50;42.80
16404;DHT22;8311;50.158;8.642;2022-07-30T02:46:29;26.40;42.80
16404;DHT22;8311;50.158;8.642;2022-07-30T02:49:23;26.50;42.90
16404;DHT22;8311;50.158;8.642;2022-07-30T02:52:17;26.40;42.80
16404;DHT22;8311;50.158;8.642;2022-07-30T02:55:12;26.50;42.90
16404;DHT22;8311;50.158;8.642;2022-07-30T02:58:08;26.50;42.90
16404;DHT22;8311;50.158;8.642;2022-07-30T03:01:01;26.40;42.80
16404;DHT22;8311;50.158;8.642;2022-07-30T03:03:56;26.40;42.80
16404;DHT22;8311;50.158;8.642;2022-07-30T03:06:50;26.40;42.80
16404;DHT22;8311;50.158;8.642;2022-07-30T03:09:45;26.40;42.80
16404;DHT22;8311;50.158;8.642;2022-07-30T03:12:49;26.50;43.00
16404;DHT22;8311;50.158;8.642;2022-07-30T03:15:45;26.40;42.90
16404;DHT22;8311;50.158;8.642;2022-07-30T03:18:40;26.50;42.90
16404;DHT22;8311;50.158;8.642;2022-07-30T03:21:36;26.50;43.00
16404;DHT22;8311;50.158;8.642;2022-07-30T03:24:30;26.50;43.00
16404;DHT22;8311;50.158;8.642;2022-07-30T03:27:24;26.40;42.90
16404;DHT22;8311;50.158;8.642;2022-07-30T03:30:19;26.40;42.90
16404;DHT22;8311;50.158;8.642;2022-07-30T03:33:13;26.40;42.90
16404;DHT22;8311;50.158;8.642;2022-07-30T03:36:09;26.40;42.90
16404;DHT22;8311;50.158;8.642;2022-07-30T03:39:04;26.40;43.00
16404;DHT22;8311;50.158;8.642;2022-07-30T03:41:59;26.40;43.00
16404;DHT22;8311;50.158;8.642;2022-07-30T03:44:54;26.40;42.90
16404;DHT22;8311;50.158;8.642;2022-07-30T03:47:50;26.40;43.00
16404;DHT22;8311;50.158;8.642;2022-07-30T03:50:44;26.40;42.90
16404;DHT22;8311;50.158;8.642;2022-07-30T03:53:39;26.40;42.90
16404;DHT22;8311;50.158;8.642;2022-07-30T03:56:34;26.50;43.00
16404;DHT22;8311;50.158;8.642;2022-07-30T03:59:27;26.40;43.00
16404;DHT22;8311;50.158;8.642;2022-07-30T04:02:19;26.40;42.90
16404;DHT22;8311;50.158;8.642;2022-07-30T04:05:14;26.40;43.60
16404;DHT22;8311;50.158;8.642;2022-07-30T04:08:08;26.40;43.00
16404;DHT22;8311;50.158;8.642;2022-07-30T04:11:02;26.50;43.00
16404;DHT22;8311;50.158;8.642;2022-07-30T04:13:55;26.40;43.00
16404;DHT22;8311;50.158;8.642;2022-07-30T04:16:52;26.40;42.90
16404;DHT22;8311;50.158;8.642;2022-07-30T04:19:49;26.40;43.00
16404;DHT22;8311;50.158;8.642;2022-07-30T04:22:45;26.40;43.00
16404;DHT22;8311;50.158;8.642;2022-07-30T04:25:41;26.40;42.90
16404;DHT22;8311;50.158;8.642;2022-07-30T04:28:36;26.40;43.00
16404;DHT22;8311;50.158;8.642;2022-07-30T04:31:31;26.40;43.00
16404;DHT22;8311;50.158;8.642;2022-07-30T04:34:32;26.40;42.90
16404;DHT22;8311;50.158;8.642;2022-07-30T04:37:26;26.40;42.90
16404;DHT22;8311;50.158;8.642;2022-07-30T04:40:21;26.40;43.00
16404;DHT22;8311;50.158;8.642;2022-07-30T04:43:15;26.40;43.00
16404;DHT22;8311;50.158;8.642;2022-07-30T04:46:09;26.40;42.90
16404;DHT22;8311;50.158;8.642;2022-07-30T04:49:02;26.40;43.00
16404;DHT22;8311;50.158;8.642;2022-07-30T04:51:56;26.40;43.00
16404;DHT22;8311;50.158;8.642;2022-07-30T04:54:55;26.40;43.00
16404;DHT22;8311;50.158;8.642;2022-07-30T04:57:51;26.40;42.90
16404;DHT22;8311;50.158;8.642;2022-07-30T05:00:45;26.40;43.00
16404;DHT22;8311;50.158;8.642;2022-07-30T05:03:39;26.40;43.00
16404;DHT22;8311;50.158;8.642;2022-07-30T05:06:34;26.40;43.00
16404;DHT22;8311;50.158;8.642;2022-07-30T05:09:29;26.40;43.00
16404;DHT22;8311;50.158;8.642;2022-07-30T05:12:31;26.40;43.00
16404;DHT22;8311;50.158;8.642;2022-07-30T05:15:26;26.40;43.00
16404;DHT22;8311;50.158;8.642;2022-07-30T05:18:28;26.40;43.00
16404;DHT22;8311;50.158;8.642;2022-07-30T05:21:22;26.40;43.00
16404;DHT22;8311;50.158;8.642;2022-07-30T05:24:19;26.40;43.10
16404;DHT22;8311;50.158;8.642;2022-07-30T05:27:12;26.40;43.20
16404;DHT22;8311;50.158;8.642;2022-07-30T05:30:07;26.40;43.10
16404;DHT22;8311;50.158;8.642;2022-07-30T05:33:04;26.40;43.10
16404;DHT22;8311;50.158;8.642;2022-07-30T05:36:07;26.40;43.10
16404;DHT22;8311;50.158;8.642;2022-07-30T05:39:00;26.40;43.00
16404;DHT22;8311;50.158;8.642;2022-07-30T05:41:53;26.40;43.10
16404;DHT22;8311;50.158;8.642;2022-07-30T05:44:47;26.40;43.20
16404;DHT22;8311;50.158;8.642;2022-07-30T05:47:40;26.40;43.10
16404;DHT22;8311;50.158;8.642;2022-07-30T05:50:35;26.40;43.10
16404;DHT22;8311;50.158;8.642;2022-07-30T05:53:30;26.40;43.00
16404;DHT22;8311;50.158;8.642;2022-07-30T05:56:24;26.40;43.10
16404;DHT22;8311;50.158;8.642;2022-07-30T05:59:18;26.40;43.10
16404;DHT22;8311;50.158;8.642;2022-07-30T06:02:10;26.40;43.10
16404;DHT22;8311;50.158;8.642;2022-07-30T06:05:04;26.40;43.20
16404;DHT22;8311;50.158;8.642;2022-07-30T06:07:59;26.40;43.20
16404;DHT22;8311;50.158;8.642;2022-07-30T06:10:53;26.40;43.10
16404;DHT22;8311;50.158;8.642;2022-07-30T06:13:47;26.40;43.00
16404;DHT22;8311;50.158;8.642;2022-07-30T06:16:40;26.40;42.90
16404;DHT22;8311;50.158;8.642;2022-07-30T06:19:33;26.40;43.10
16404;DHT22;8311;50.158;8.642;2022-07-30T06:22:26;26.40;43.10
16404;DHT22;8311;50.158;8.642;2022-07-30T06:25:20;26.40;43.00
16404;DHT22;8311;50.158;8.642;2022-07-30T06:28:14;26.40;43.20
16404;DHT22;8311;50.158;8.642;2022-07-30T06:31:28;26.40;43.10
16404;DHT22;8311;50.158;8.642;2022-07-30T06:34:21;26.40;43.00
16404;DHT22;8311;50.158;8.642;2022-07-30T06:37:14;26.40;43.00
16404;DHT22;8311;50.158;8.642;2022-07-30T06:40:08;26.40;43.20
16404;DHT22;8311;50.158;8.642;2022-07-30T06:43:03;26.40;43.30
16404;DHT22;8311;50.158;8.642;2022-07-30T06:45:56;26.40;45.90
16404;DHT22;8311;50.158;8.642;2022-07-30T06:48:49;26.40;46.50
16404;DHT22;8311;50.158;8.642;2022-07-30T06:51:42;26.40;46.40
16404;DHT22;8311;50.158;8.642;2022-07-30T06:54:37;26.40;46.70
16404;DHT22;8311;50.158;8.642;2022-07-30T06:57:30;26.40;46.00
16404;DHT22;8311;50.158;8.642;2022-07-30T07:00:29;26.40;46.40
16404;DHT22;8311;50.158;8.642;2022-07-30T07:03:22;26.40;46.90
16404;DHT22;8311;50.158;8.642;2022-07-30T07:06:30;26.40;46.90
16404;DHT22;8311;50.158;8.642;2022-07-30T07:09:23;26.40;46.20
16404;DHT22;8311;50.158;8.642;2022-07-30T07:12:16;26.40;47.10
16404;DHT22;8311;50.158;8.642;2022-07-30T07:15:09;26.40;46.60
16404;DHT22;8311;50.158;8.642;2022-07-30T07:18:04;26.50;46.00
16404;DHT22;8311;50.158;8.642;2022-07-30T07:20:57;26.40;46.00
16404;DHT22;8311;50.158;8.642;2022-07-30T07:23:51;26.50;46.50
16404;DHT22;8311;50.158;8.642;2022-07-30T07:26:44;26.50;46.60
16404;DHT22;8311;50.158;8.642;2022-07-30T07:29:37;26.40;46.50
16404;DHT22;8311;50.158;8.642;2022-07-30T07:32:31;26.50;46.20
16404;DHT22;8311;50.158;8.642;2022-07-30T07:35:26;26.50;45.90
16404;DHT22;8311;50.158;8.642;2022-07-30T07:38:19;26.50;46.10
16404;DHT22;8311;50.158;8.642;2022-07-30T07:41:12;26.50;45.90
16404;DHT22;8311;50.158;8.642;2022-07-30T07:44:05;26.50;46.10
16404;DHT22;8311;50.158;8.642;2022-07-30T07:46:59;26.50;46.10
16404;DHT22;8311;50.158;8.642;2022-07-30T07:49:53;26.50;45.90
16404;DHT22;8311;50.158;8.642;2022-07-30T07:52:48;26.50;46.00
16404;DHT22;8311;50.158;8.642;2022-07-30T07:55:42;26.50;46.00
16404;DHT22;8311;50.158;8.642;2022-07-30T07:58:36;26.50;45.70
16404;DHT22;8311;50.158;8.642;2022-07-30T08:01:31;26.60;45.80
16404;DHT22;8311;50.158;8.642;2022-07-30T08:04:25;26.50;45.70
16404;DHT22;8311;50.158;8.642;2022-07-30T08:07:18;26.50;45.60
16404;DHT22;8311;50.158;8.642;2022-07-30T08:10:12;26.50;45.60
16404;DHT22;8311;50.158;8.642;2022-07-30T08:13:07;26.50;45.50
16404;DHT22;8311;50.158;8.642;2022-07-30T08:16:20;26.50;45.40
16404;DHT22;8311;50.158;8.642;2022-07-30T08:19:14;26.60;45.10
16404;DHT22;8311;50.158;8.642;2022-07-30T08:22:08;26.60;44.40
16404;DHT22;8311;50.158;8.642;2022-07-30T08:25:02;26.60;44.60
16404;DHT22;8311;50.158;8.642;2022-07-30T08:27:56;26.60;44.40
16404;DHT22;8311;50.158;8.642;2022-07-30T08:30:51;26.60;44.40
16404;DHT22;8311;50.158;8.642;2022-07-30T08:33:44;26.60;44.40
16404;DHT22;8311;50.158;8.642;2022-07-30T08:36:37;26.50;44.40
16404;DHT22;8311;50.158;8.642;2022-07-30T08:39:30;26.50;44.40
16404;DHT22;8311;50.158;8.642;2022-07-30T08:42:23;26.50;44.40
16404;DHT22;8311;50.158;8.642;2022-07-30T08:45:17;26.60;44.50
16404;DHT22;8311;50.158;8.642;2022-07-30T08:48:27;26.50;44.30
16404;DHT22;8311;50.158;8.642;2022-07-30T08:51:22;26.50;44.30
16404;DHT22;8311;50.158;8.642;2022-07-30T08:54:15;26.50;44.30
16404;DHT22;8311;50.158;8.642;2022-07-30T08:57:08;26.50;44.30
16404;DHT22;8311;50.158;8.642;2022-07-30T09:00:04;26.50;44.30
16404;DHT22;8311;50.158;8.642;2022-07-30T09:03:00;26.50;44.20
16404;DHT22;8311;50.158;8.642;2022-07-30T09:05:53;26.50;44.20
16404;DHT22;8311;50.158;8.642;2022-07-30T09:08:46;26.50;44.20
16404;DHT22;8311;50.158;8.642;2022-07-30T09:11:39;26.50;44.20
16404;DHT22;8311;50.158;8.642;2022-07-30T09:14:32;26.50;44.20
16404;DHT22;8311;50.158;8.642;2022-07-30T09:17:25;26.50;44.20
16404;DHT22;8311;50.158;8.642;2022-07-30T09:20:27;26.50;44.20
16404;DHT22;8311;50.158;8.642;2022-07-30T09:23:20;26.50;44.20
16404;DHT22;8311;50.158;8.642;2022-07-30T09:26:14;26.50;44.10
16404;DHT22;8311;50.158;8.642;2022-07-30T09:29:15;26.50;44.20
16404;DHT22;8311;50.158;8.642;2022-07-30T09:32:08;26.50;44.10
16404;DHT22;8311;50.158;8.642;2022-07-30T09:35:11;26.50;44.10
16404;DHT22;8311;50.158;8.642;2022-07-30T09:38:05;26.50;44.10
16404;DHT22;8311;50.158;8.642;2022-07-30T09:40:59;26.50;44.10
16404;DHT22;8311;50.158;8.642;2022-07-30T09:44:04;26.50;44.00
16404;DHT22;8311;50.158;8.642;2022-07-30T09:46:57;26.50;44.10
16404;DHT22;8311;50.158;8.642;2022-07-30T09:50:02;26.50;44.00
16404;DHT22;8311;50.158;8.642;2022-07-30T09:53:07;26.50;44.70
16404;DHT22;8311;50.158;8.642;2022-07-30T09:56:24;26.50;44.00
16404;DHT22;8311;50.158;8.642;2022-07-30T09:59:28;26.50;44.00
16404;DHT22;8311;50.158;8.642;2022-07-30T10:02:30;26.50;44.00
16404;DHT22;8311;50.158;8.642;2022-07-30T10:05:24;26.50;44.00
16404;DHT22;8311;50.158;8.642;2022-07-30T10:08:20;26.50;44.00
16404;DHT22;8311;50.158;8.642;2022-07-30T10:11:29;26.50;44.00
16404;DHT22;8311;50.158;8.642;2022-07-30T10:14:27;26.50;43.90
16404;DHT22;8311;50.158;8.642;2022-07-30T10:17:23;26.50;43.90
16404;DHT22;8311;50.158;8.642;2022-07-30T10:20:16;26.50;44.00
16404;DHT22;8311;50.158;8.642;2022-07-30T10:23:09;26.50;43.90
16404;DHT22;8311;50.158;8.642;2022-07-30T10:26:09;26.50;43.90
16404;DHT22;8311;50.158;8.642;2022-07-30T10:29:03;26.50;43.90
16404;DHT22;8311;50.158;8.642;2022-07-30T10:31:59;26.50;43.90
16404;DHT22;8311;50.158;8.642;2022-07-30T10:34:54;26.60;43.90
16404;DHT22;8311;50.158;8.642;2022-07-30T10:37:48;26.50;43.80
16404;DHT22;8311;50.158;8.642;2022-07-30T10:40:49;26.60;43.90
16404;DHT22;8311;50.158;8.642;2022-07-30T10:44:04;26.60;43.80
16404;DHT22;8311;50.158;8.642;2022-07-30T10:47:08;26.60;43.80
16404;DHT22;8311;50.158;8.642;2022-07-30T10:50:07;26.60;43.80
16404;DHT22;8311;50.158;8.642;2022-07-30T10:53:02;26.60;43.80
16404;DHT22;8311;50.158;8.642;2022-07-30T10:56:10;26.50;43.70
16404;DHT22;8311;50.158;8.642;2022-07-30T10:59:07;26.60;43.80
16404;DHT22;8311;50.158;8.642;2022-07-30T11:02:08;26.60;43.80
16404;DHT22;8311;50.158;8.642;2022-07-30T11:05:22;26.60;43.80
16404;DHT22;8311;50.158;8.642;2022-07-30T11:08:38;26.60;43.70
16404;DHT22;8311;50.158;8.642;2022-07-30T11:11:46;26.60;43.80
16404;DHT22;8311;50.158;8.642;2022-07-30T11:14:58;26.60;43.70
16404;DHT22;8311;50.158;8.642;2022-07-30T11:18:09;26.60;43.70
16404;DHT22;8311;50.158;8.642;2022-07-30T11:21:15;26.60;43.60
16404;DHT22;8311;50.158;8.642;2022-07-30T11:27:38;26.60;43.60
16404;DHT22;8311;50.158;8.642;2022-07-30T11:30:34;26.60;43.60
16404;DHT22;8311;50.158;8.642;2022-07-30T11:33:27;26.60;43.50
16404;DHT22;8311;50.158;8.642;2022-07-30T11:36:24;26.60;43.50
16404;DHT22;8311;50.158;8.642;2022-07-30T11:39:17;26.60;43.50
16404;DHT22;8311;50.158;8.642;2022-07-30T11:42:24;26.60;43.50
16404;DHT22;8311;50.158;8.642;2022-07-30T11:45:22;26.60;43.50
16404;DHT22;8311;50.158;8.642;2022-07-30T11:48:19;26.60;43.50
16404;DHT22;8311;50.158;8.642;2022-07-30T11:51:13;26.60;43.50
16404;DHT22;8311;50.158;8.642;2022-07-30T11:54:07;26.60;43.50
16404;DHT22;8311;50.158;8.642;2022-07-30T11:57:02;26.60;43.40
16404;DHT22;8311;50.158;8.642;2022-07-30T11:59:55;26.60;43.40
16404;DHT22;8311;50.158;8.642;2022-07-30T12:02:49;26.60;43.40
16404;DHT22;8311;50.158;8.642;2022-07-30T12:05:44;26.60;43.40
16404;DHT22;8311;50.158;8.642;2022-07-30T12:08:45;26.60;43.40
16404;DHT22;8311;50.158;8.642;2022-07-30T12:11:39;26.60;43.40
16404;DHT22;8311;50.158;8.642;2022-07-30T12:14:36;26.60;43.40
16404;DHT22;8311;50.158;8.642;2022-07-30T12:17:40;26.60;43.40
16404;DHT22;8311;50.158;8.642;2022-07-30T12:20:33;26.60;43.40
16404;DHT22;8311;50.158;8.642;2022-07-30T12:23:29;26.60;43.30
16404;DHT22;8311;50.158;8.642;2022-07-30T12:26:24;26.60;43.40
16404;DHT22;8311;50.158;8.642;2022-07-30T12:29:19;26.60;43.30
16404;DHT22;8311;50.158;8.642;2022-07-30T12:32:13;26.60;43.30
16404;DHT22;8311;50.158;8.642;2022-07-30T12:35:07;26.60;43.30
16404;DHT22;8311;50.158;8.642;2022-07-30T12:38:03;26.70;43.40
16404;DHT22;8311;50.158;8.642;2022-07-30T12:40:58;26.70;43.30
16404;DHT22;8311;50.158;8.642;2022-07-30T12:43:53;26.70;43.40
16404;DHT22;8311;50.158;8.642;2022-07-30T12:46:47;26.70;43.30
16404;DHT22;8311;50.158;8.642;2022-07-30T12:49:40;26.70;43.30
16404;DHT22;8311;50.158;8.642;2022-07-30T12:52:47;26.70;43.30
16404;DHT22;8311;50.158;8.642;2022-07-30T12:55:41;26.60;43.20
16404;DHT22;8311;50.158;8.642;2022-07-30T12:58:37;26.70;43.30
16404;DHT22;8311;50.158;8.642;2022-07-30T13:01:40;26.70;43.30
16404;DHT22;8311;50.158;8.642;2022-07-30T13:04:33;26.70;43.30
16404;DHT22;8311;50.158;8.642;2022-07-30T13:07:53;26.70;43.30
16404;DHT22;8311;50.158;8.642;2022-07-30T13:10:54;26.70;43.30
16404;DHT22;8311;50.158;8.642;2022-07-30T13:13:52;26.70;43.30
16404;DHT22;8311;50.158;8.642;2022-07-30T13:16:45;26.70;43.30
16404;DHT22;8311;50.158;8.642;2022-07-30T13:19:38;26.70;43.30
16404;DHT22;8311;50.158;8.642;2022-07-30T13:22:31;26.70;43.20
16404;DHT22;8311;50.158;8.642;2022-07-30T13:25:25;26.70;43.30
16404;DHT22;8311;50.158;8.642;2022-07-30T13:28:31;26.70;43.20
16404;DHT22;8311;50.158;8.642;2022-07-30T13:31:28;26.70;43.30
16404;DHT22;8311;50.158;8.642;2022-07-30T13:34:34;26.70;43.30
16404;DHT22;8311;50.158;8.642;2022-07-30T13:37:27;26.70;43.30
16404;DHT22;8311;50.158;8.642;2022-07-30T13:40:29;26.70;43.30
16404;DHT22;8311;50.158;8.642;2022-07-30T13:43:23;26.70;43.20
16404;DHT22;8311;50.158;8.642;2022-07-30T13:46:17;26.70;43.20
16404;DHT22;8311;50.158;8.642;2022-07-30T13:49:11;26.70;43.30
16404;DHT22;8311;50.158;8.642;2022-07-30T13:52:06;26.70;43.20
16404;DHT22;8311;50.158;8.642;2022-07-30T13:55:00;26.70;43.30
16404;DHT22;8311;50.158;8.642;2022-07-30T13:57:53;26.70;43.20
16404;DHT22;8311;50.158;8.642;2022-07-30T14:00:47;26.70;43.20
16404;DHT22;8311;50.158;8.642;2022-07-30T14:03:40;26.70;43.20
16404;DHT22;8311;50.158;8.642;2022-07-30T14:06:42;26.70;43.20
16404;DHT22;8311;50.158;8.642;2022-07-30T14:09:36;26.70;43.20
16404;DHT22;8311;50.158;8.642;2022-07-30T14:12:38;26.70;43.20
16404;DHT22;8311;50.158;8.642;2022-07-30T14:15:31;26.70;43.20
16404;DHT22;8311;50.158;8.642;2022-07-30T14:18:25;26.70;43.30
16404;DHT22;8311;50.158;8.642;2022-07-30T14:21:18;26.70;43.20
16404;DHT22;8311;50.158;8.642;2022-07-30T14:24:13;26.70;43.20
16404;DHT22;8311;50.158;8.642;2022-07-30T14:27:07;26.70;43.20
16404;DHT22;8311;50.158;8.642;2022-07-30T14:30:01;26.70;43.20
16404;DHT22;8311;50.158;8.642;2022-07-30T14:32:55;26.70;43.20
16404;DHT22;8311;50.158;8.642;2022-07-30T14:35:55;26.70;43.30
16404;DHT22;8311;50.158;8.642;2022-07-30T14:38:48;26.70;43.20
16404;DHT22;8311;50.158;8.642;2022-07-30T14:41:49;26.70;43.30
16404;DHT22;8311;50.158;8.642;2022-07-30T14:44:46;26.70;43.20
16404;DHT22;8311;50.158;8.642;2022-07-30T14:47:44;26.70;43.20
16404;DHT22;8311;50.158;8.642;2022-07-30T14:50:38;26.70;43.20
16404;DHT22;8311;50.158;8.642;2022-07-30T14:53:51;26.70;43.30
16404;DHT22;8311;50.158;8.642;2022-07-30T14:56:45;26.70;43.30
16404;DHT22;8311;50.158;8.642;2022-07-30T14:59:40;26.70;43.30
16404;DHT22;8311;50.158;8.642;2022-07-30T15:02:34;26.70;43.30
16404;DHT22;8311;50.158;8.642;2022-07-30T15:05:27;26.70;43.30
16404;DHT22;8311;50.158;8.642;2022-07-30T15:08:20;26.70;43.30
16404;DHT22;8311;50.158;8.642;2022-07-30T15:11:13;26.70;43.30
16404;DHT22;8311;50.158;8.642;2022-07-30T15:14:07;26.70;43.30
16404;DHT22;8311;50.158;8.642;2022-07-30T15:17:02;26.70;43.20
16404;DHT22;8311;50.158;8.642;2022-07-30T15:19:55;26.70;43.30
16404;DHT22;8311;50.158;8.642;2022-07-30T15:22:48;26.70;43.30
16404;DHT22;8311;50.158;8.642;2022-07-30T15:25:43;26.70;43.20
16404;DHT22;8311;50.158;8.642;2022-07-30T15:28:37;26.70;43.20
16404;DHT22;8311;50.158;8.642;2022-07-30T15:31:30;26.70;43.30
16404;DHT22;8311;50.158;8.642;2022-07-30T15:34:25;26.70;43.20
16404;DHT22;8311;50.158;8.642;2022-07-30T15:37:18;26.70;43.30
16404;DHT22;8311;50.158;8.642;2022-07-30T15:40:11;26.70;43.20
16404;DHT22;8311;50.158;8.642;2022-07-30T15:43:04;26.70;43.20
16404;DHT22;8311;50.158;8.642;2022-07-30T15:46:01;26.70;43.20
16404;DHT22;8311;50.158;8.642;2022-07-30T15:48:54;26.70;43.30
16404;DHT22;8311;50.158;8.642;2022-07-30T15:51:50;26.70;43.20
16404;DHT22;8311;50.158;8.642;2022-07-30T15:54:43;26.70;43.20
16404;DHT22;8311;50.158;8.642;2022-07-30T15:57:37;26.70;43.20
16404;DHT22;8311;50.158;8.642;2022-07-30T16:00:31;26.70;43.20
16404;DHT22;8311;50.158;8.642;2022-07-30T16:03:27;26.70;43.20
16404;DHT22;8311;50.158;8.642;2022-07-30T16:06:20;26.70;43.20
16404;DHT22;8311;50.158;8.642;2022-07-30T16:09:15;26.70;43.20
16404;DHT22;8311;50.158;8.642;2022-07-30T16:12:08;26.70;43.20
16404;DHT22;8311;50.158;8.642;2022-07-30T16:15:03;26.70;43.20
16404;DHT22;8311;50.158;8.642;2022-07-30T16:17:56;26.60;43.10
16404;DHT22;8311;50.158;8.642;2022-07-30T16:20:49;26.70;43.20
16404;DHT22;8311;50.158;8.642;2022-07-30T16:23:42;26.70;43.20
16404;DHT22;8311;50.158;8.642;2022-07-30T16:26:37;26.70;43.20
16404;DHT22;8311;50.158;8.642;2022-07-30T16:29:30;26.70;43.20
16404;DHT22;8311;50.158;8.642;2022-07-30T16:32:24;26.70;43.20
16404;DHT22;8311;50.158;8.642;2022-07-30T16:35:17;26.70;43.20
16404;DHT22;8311;50.158;8.642;2022-07-30T16:38:11;26.60;43.10
16404;DHT22;8311;50.158;8.642;2022-07-30T16:41:05;26.70;43.10
16404;DHT22;8311;50.158;8.642;2022-07-30T16:44:06;26.70;43.20
16404;DHT22;8311;50.158;8.642;2022-07-30T16:47:00;26.70;43.20
16404;DHT22;8311;50.158;8.642;2022-07-30T16:49:53;26.70;43.20
16404;DHT22;8311;50.158;8.642;2022-07-30T16:52:47;26.70;43.20
16404;DHT22;8311;50.158;8.642;2022-07-30T16:55:41;26.70;43.20
16404;DHT22;8311;50.158;8.642;2022-07-30T16:58:34;26.70;43.10
16404;DHT22;8311;50.158;8.642;2022-07-30T17:01:30;26.70;43.20
16404;DHT22;8311;50.158;8.642;2022-07-30T17:04:24;26.70;43.10
16404;DHT22;8311;50.158;8.642;2022-07-30T17:07:17;26.70;43.10
16404;DHT22;8311;50.158;8.642;2022-07-30T17:10:11;26.70;43.20
16404;DHT22;8311;50.158;8.642;2022-07-30T17:13:04;26.70;43.20
16404;DHT22;8311;50.158;8.642;2022-07-30T17:15:57;26.70;43.20
16404;DHT22;8311;50.158;8.642;2022-07-30T17:18:52;26.60;43.10
16404;DHT22;8311;50.158;8.642;2022-07-30T17:21:45;26.70;43.10
16404;DHT22;8311;50.158;8.642;2022-07-30T17:24:39;26.60;43.00
16404;DHT22;8311;50.158;8.642;2022-07-30T17:27:32;26.70;43.10
16404;DHT22;8311;50.158;8.642;2022-07-30T17:30:27;26.70;43.10
16404;DHT22;8311;50.158;8.642;2022-07-30T17:33:20;26.70;43.60
16404;DHT22;8311;50.158;8.642;2022-07-30T17:36:15;26.70;43.10
16404;DHT22;8311;50.158;8.642;2022-07-30T17:39:09;26.70;43.10
16404;DHT22;8311;50.158;8.642;2022-07-30T17:42:22;26.70;43.10
16404;DHT22;8311;50.158;8.642;2022-07-30T17:45:16;26.70;43.10
16404;DHT22;8311;50.158;8.642;2022-07-30T17:48:10;26.70;43.10
16404;DHT22;8311;50.158;8.642;2022-07-30T17:51:03;26.70;43.70
16404;DHT22;8311;50.158;8.642;2022-07-30T17:53:59;26.70;43.10
16404;DHT22;8311;50.158;8.642;2022-07-30T17:56:53;26.70;43.10
16404;DHT22;8311;50.158;8.642;2022-07-30T17:59:46;26.70;43.10
16404;DHT22;8311;50.158;8.642;2022-07-30T18:02:39;26.70;43.10
16404;DHT22;8311;50.158;8.642;2022-07-30T18:05:32;26.70;43.10
16404;DHT22;8311;50.158;8.642;2022-07-30T18:08:25;26.70;43.10
16404;DHT22;8311;50.158;8.642;2022-07-30T18:11:21;26.70;43.10
16404;DHT22;8311;50.158;8.642;2022-07-30T18:14:15;26.60;43.00
16404;DHT22;8311;50.158;8.642;2022-07-30T18:17:10;26.70;43.10
16404;DHT22;8311;50.158;8.642;2022-07-30T18:20:06;26.60;43.00
16404;DHT22;8311;50.158;8.642;2022-07-30T18:23:02;26.60;43.10
16404;DHT22;8311;50.158;8.642;2022-07-30T18:25:59;26.60;43.10
16404;DHT22;8311;50.158;8.642;2022-07-30T18:28:55;26.70;43.10
16404;DHT22;8311;50.158;8.642;2022-07-30T18:31:48;26.70;43.10
16404;DHT22;8311;50.158;8.642;2022-07-30T18:34:41;26.70;43.10
16404;DHT22;8311;50.158;8.642;2022-07-30T18:37:34;26.60;43.00
16404;DHT22;8311;50.158;8.642;2022-07-30T18:40:32;26.70;43.10
16404;DHT22;8311;50.158;8.642;2022-07-30T18:43:26;26.60;43.10
16404;DHT22;8311;50.158;8.642;2022-07-30T18:46:21;26.60;43.10
16404;DHT22;8311;50.158;8.642;2022-07-30T18:49:15;26.60;43.10
16404;DHT22;8311;50.158;8.642;2022-07-30T18:52:27;26.60;43.10